Time;durP1;ratioP1;P1;durP2;ratioP2;P2;SDS_P1;SDS_P2;PMS_P1;PMS_P2;Temp;Humidity;BMP_temperature;BMP_pressure;BME280_temperature;BME280_humidity;BME280_pressure;Samples;Min_cycle;Max_cycle;Signal;HPM_P1;HPM_P2
2021/03/21 00:02:05;;;;;;;7.40;4.20;;;6.20;94.60;;;;;;5028992;28;20116;-53
2021/03/21 00:04:31;;;;;;;7.97;4.78;;;6.10;94.60;;;;;;5026987;28;20046;-54
2021/03/21 00:06:58;;;;;;;9.00;4.80;;;6.20;94.50;;;;;;5033908;28;20096;-55
2021/03/21 00:09:26;;;;;;;8.90;4.78;;;6.20;94.70;;;;;;5008158;28;20053;-54
2021/03/21 00:11:52;;;;;;;8.60;4.72;;;6.20;94.70;;;;;;4993277;28;20091;-54
2021/03/21 00:14:20;;;;;;;9.45;5.20;;;6.20;94.50;;;;;;5031546;28;20765;-54
2021/03/21 00:16:46;;;;;;;11.23;5.43;;;6.20;94.60;;;;;;5028457;28;20379;-54
2021/03/21 00:19:17;;;;;;;10.57;5.63;;;6.20;94.50;;;;;;5002908;28;20092;-53
2021/03/21 00:21:44;;;;;;;10.82;5.88;;;6.20;94.40;;;;;;5016945;28;20060;-53
2021/03/21 00:24:09;;;;;;;11.45;6.13;;;6.30;94.70;;;;;;5035126;28;20052;-50
2021/03/21 00:26:35;;;;;;;12.10;6.25;;;6.30;94.30;;;;;;5040877;28;20535;-55
2021/03/21 00:29:04;;;;;;;9.52;6.20;;;6.30;94.30;;;;;;5017370;28;20079;-51
2021/03/21 00:31:29;;;;;;;14.70;6.00;;;6.30;94.30;;;;;;5020715;28;20057;-52
2021/03/21 00:33:55;;;;;;;10.98;5.95;;;6.30;94.40;;;;;;5033335;28;20041;-53
2021/03/21 00:36:20;;;;;;;10.00;6.22;;;6.30;94.30;;;;;;5002613;28;20085;-53
2021/03/21 00:38:51;;;;;;;10.77;6.30;;;6.40;94.40;;;;;;5030449;28;20045;-54
2021/03/21 00:41:20;;;;;;;11.88;7.00;;;6.40;94.40;;;;;;5043825;28;20049;-58
2021/03/21 00:43:46;;;;;;;16.27;7.20;;;6.40;94.30;;;;;;5022096;28;20465;-54
2021/03/21 00:46:12;;;;;;;13.40;6.55;;;6.40;94.30;;;;;;5031745;28;20037;-51
2021/03/21 00:48:41;;;;;;;11.70;7.30;;;6.40;94.30;;;;;;5023338;28;20033;-53
2021/03/21 00:51:09;;;;;;;12.18;7.32;;;6.40;94.30;;;;;;5021389;28;20060;-51
2021/03/21 00:53:37;;;;;;;12.55;7.50;;;6.40;94.30;;;;;;5022023;28;20048;-56
2021/03/21 00:56:04;;;;;;;11.68;6.72;;;6.40;94.20;;;;;;5024094;28;20091;-53
2021/03/21 00:58:30;;;;;;;10.93;6.93;;;6.40;94.30;;;;;;5034869;28;20042;-51
2021/03/21 01:00:59;;;;;;;12.75;7.70;;;6.40;94.20;;;;;;5031780;28;20091;-51
2021/03/21 01:03:25;;;;;;;12.50;7.93;;;6.40;94.20;;;;;;5025373;28;20417;-56
2021/03/21 01:05:53;;;;;;;12.02;7.13;;;6.40;94.20;;;;;;5024458;28;20435;-56
2021/03/21 01:08:26;;;;;;;15.60;7.72;;;6.50;94.30;;;;;;5028329;28;20046;-53
2021/03/21 01:10:55;;;;;;;12.38;7.78;;;6.40;94.20;;;;;;5022741;28;20038;-55
2021/03/21 01:13:21;;;;;;;15.02;7.82;;;6.40;94.20;;;;;;5015082;28;20046;-53
2021/03/21 01:15:49;;;;;;;12.13;7.78;;;6.40;94.40;;;;;;5031684;28;20413;-56
2021/03/21 01:18:21;;;;;;;12.88;8.00;;;6.40;94.30;;;;;;5015046;28;20033;-55
2021/03/21 01:20:47;;;;;;;15.45;8.38;;;6.40;94.20;;;;;;5030930;28;20044;-55
2021/03/21 01:23:13;;;;;;;16.60;8.48;;;6.40;94.20;;;;;;5023978;28;20037;-55
2021/03/21 01:25:39;;;;;;;13.70;7.43;;;6.40;94.30;;;;;;5032416;28;20043;-54
2021/03/21 01:28:30;;;;;;;14.27;8.25;;;6.50;94.20;;;;;;5029561;28;20037;-55
2021/03/21 01:30:58;;;;;;;10.70;6.88;;;6.40;94.20;;;;;;5031032;28;20181;-54
2021/03/21 01:33:28;;;;;;;15.30;7.93;;;6.50;94.20;;;;;;5011371;28;20112;-54
2021/03/21 01:35:54;;;;;;;13.60;7.68;;;6.50;94.10;;;;;;5032706;28;20408;-52
2021/03/21 01:38:20;;;;;;;13.32;7.70;;;6.50;94.20;;;;;;5033790;28;20068;-51
2021/03/21 01:40:49;;;;;;;12.23;7.40;;;6.50;94.10;;;;;;5034329;28;20045;-52
2021/03/21 01:43:16;;;;;;;11.90;7.43;;;6.50;94.10;;;;;;5028151;28;20034;-52
2021/03/21 01:45:45;;;;;;;14.60;8.07;;;6.50;94.00;;;;;;5001909;28;20040;-52
2021/03/21 01:48:33;;;;;;;13.60;7.78;;;6.50;94.00;;;;;;5033112;28;20084;-55
2021/03/21 01:51:24;;;;;;;14.60;7.57;;;6.50;94.10;;;;;;5030855;28;20490;-55
2021/03/21 01:53:55;;;;;;;13.98;8.10;;;6.50;94.10;;;;;;5025162;28;20490;-54
2021/03/21 01:56:22;;;;;;;12.43;7.50;;;6.60;94.00;;;;;;5028874;28;20095;-54
2021/03/21 01:59:06;;;;;;;14.18;7.70;;;6.60;94.20;;;;;;5031790;28;20116;-55
2021/03/21 02:01:32;;;;;;;13.70;7.65;;;6.60;94.10;;;;;;5029112;28;20328;-55
2021/03/21 02:03:58;;;;;;;14.77;7.55;;;6.60;94.10;;;;;;5045495;28;20050;-56
2021/03/21 02:06:44;;;;;;;14.70;8.25;;;6.60;94.10;;;;;;5034521;28;20067;-55
2021/03/21 02:09:33;;;;;;;15.77;8.13;;;6.60;94.20;;;;;;5034330;28;20041;-55
2021/03/21 02:12:21;;;;;;;13.02;7.38;;;6.60;94.30;;;;;;5033681;28;20041;-55
2021/03/21 02:15:04;;;;;;;18.10;7.38;;;6.50;94.30;;;;;;5032278;28;20041;-55
2021/03/21 02:17:49;;;;;;;;;;;6.50;94.50;;;;;;5033985;28;20121;-55
2021/03/21 02:20:25;;;;;;;11.65;6.70;;;6.60;94.50;;;;;;5032139;28;19943;-53
2021/03/21 02:23:05;;;;;;;11.70;6.63;;;6.50;94.70;;;;;;5027012;28;20065;-55
2021/03/21 02:25:55;;;;;;;11.15;6.95;;;6.50;94.50;;;;;;5017060;28;20053;-55
2021/03/21 02:28:37;;;;;;;11.98;6.65;;;6.50;94.60;;;;;;5023610;28;20083;-55
2021/03/21 02:31:09;;;;;;;13.98;6.75;;;6.50;94.70;;;;;;5020404;28;20034;-54
2021/03/21 02:33:59;;;;;;;12.45;6.20;;;6.50;94.60;;;;;;5026475;28;20041;-54
2021/03/21 02:36:33;;;;;;;14.48;6.15;;;6.50;94.70;;;;;;5003201;28;20095;-54
2021/03/21 02:39:08;;;;;;;9.85;5.60;;;6.50;94.60;;;;;;5012708;28;20046;-52
2021/03/21 02:41:44;;;;;;;10.35;5.30;;;6.60;94.70;;;;;;5021652;28;20132;-50
2021/03/21 02:44:19;;;;;;;10.60;5.28;;;6.60;94.70;;;;;;5015981;28;20045;-53
2021/03/21 02:46:55;;;;;;;8.48;4.57;;;6.50;94.60;;;;;;5031189;28;20052;-55
2021/03/21 02:49:31;;;;;;;11.60;4.72;;;6.60;94.60;;;;;;5013564;28;20544;-55
2021/03/21 02:52:09;;;;;;;12.60;5.32;;;6.60;94.50;;;;;;5018281;28;20045;-56
2021/03/21 02:54:43;;;;;;;13.27;6.45;;;6.50;94.40;;;;;;5022911;28;20125;-55
2021/03/21 02:57:15;;;;;;;14.25;6.80;;;6.50;94.40;;;;;;5013641;28;20041;-53
2021/03/21 02:59:54;;;;;;;17.27;6.60;;;6.50;94.60;;;;;;4990837;28;20056;-52
2021/03/21 03:02:27;;;;;;;20.08;6.72;;;6.50;94.30;;;;;;5006595;28;20064;-55
2021/03/21 03:04:58;;;;;;;15.73;6.03;;;6.50;94.20;;;;;;5024798;28;20033;-56
2021/03/21 03:07:35;;;;;;;19.52;7.00;;;6.50;94.20;;;;;;5020595;28;20509;-54
2021/03/21 03:10:17;;;;;;;18.17;7.10;;;6.60;94.20;;;;;;5020412;28;20089;-53
2021/03/21 03:12:47;;;;;;;;;;;6.60;94.20;;;;;;5015344;28;20117;-54
2021/03/21 03:15:16;;;;;;;18.77;7.20;;;6.60;94.10;;;;;;5027580;28;20348;-55
2021/03/21 03:17:47;;;;;;;17.05;7.13;;;6.60;94.10;;;;;;5023624;28;20037;-54
2021/03/21 03:20:46;;;;;;;19.17;7.25;;;6.60;94.00;;;;;;5025885;28;20109;-53
2021/03/21 03:23:22;;;;;;;17.55;6.55;;;6.60;93.90;;;;;;5009607;28;20070;-52
2021/03/21 03:26:13;;;;;;;15.73;6.60;;;6.60;93.80;;;;;;5020299;28;20099;-54
2021/03/21 03:29:06;;;;;;;17.55;6.85;;;6.60;93.80;;;;;;5023180;28;20064;-53
2021/03/21 03:31:49;;;;;;;20.45;7.03;;;6.60;93.70;;;;;;5015252;28;20038;-53
2021/03/21 03:34:15;;;;;;;21.02;7.32;;;6.60;93.70;;;;;;5027434;28;20045;-54
2021/03/21 03:36:41;;;;;;;17.40;6.32;;;6.60;93.60;;;;;;5030706;28;20049;-52
2021/03/21 03:39:08;;;;;;;19.17;6.38;;;6.60;93.60;;;;;;5029830;28;20120;-51
2021/03/21 03:42:06;;;;;;;15.65;7.07;;;6.60;93.60;;;;;;5027598;28;20057;-51
2021/03/21 03:44:44;;;;;;;21.02;6.75;;;6.60;93.60;;;;;;5030252;28;20038;-54
2021/03/21 03:47:33;;;;;;;16.10;6.40;;;6.50;93.50;;;;;;5033392;28;20030;-53
2021/03/21 03:50:02;;;;;;;17.45;5.85;;;6.60;93.50;;;;;;5005425;28;20406;-52
2021/03/21 03:52:57;;;;;;;18.83;6.13;;;6.60;93.60;;;;;;5028840;28;20099;-50
2021/03/21 03:55:37;;;;;;;15.60;5.35;;;6.60;93.40;;;;;;4979828;28;20045;-53
2021/03/21 03:58:16;;;;;;;15.20;5.43;;;6.60;93.50;;;;;;5028066;28;20418;-53
2021/03/21 04:01:14;;;;;;;19.25;6.07;;;6.60;93.40;;;;;;5032738;28;20033;-53
2021/03/21 04:03:46;;;;;;;16.60;5.50;;;6.60;93.60;;;;;;5016140;28;20045;-50
2021/03/21 04:06:25;;;;;;;12.70;5.43;;;6.50;93.40;;;;;;5022854;28;20042;-53
2021/03/21 04:09:04;;;;;;;18.15;5.82;;;6.50;93.40;;;;;;5022913;28;20042;-54
2021/03/21 04:11:42;;;;;;;19.50;5.28;;;6.50;93.50;;;;;;5032750;28;20042;-52
2021/03/21 04:14:26;;;;;;;18.92;4.80;;;6.50;93.50;;;;;;5028440;28;20041;-53
2021/03/21 04:17:12;;;;;;;15.13;4.35;;;6.50;93.50;;;;;;5022020;28;20096;-49
2021/03/21 04:19:42;;;;;;;15.82;4.95;;;6.50;93.50;;;;;;5026823;28;20050;-50
2021/03/21 04:22:16;;;;;;;16.77;4.18;;;6.50;93.40;;;;;;5030283;28;20053;-49
2021/03/21 04:25:02;;;;;;;16.08;3.70;;;6.50;93.60;;;;;;5023422;28;20449;-53
2021/03/21 04:27:40;;;;;;;16.15;3.92;;;6.50;93.60;;;;;;5023408;28;20037;-49
2021/03/21 04:30:09;;;;;;;15.95;3.95;;;6.50;93.60;;;;;;5019476;28;20037;-53
2021/03/21 04:32:42;;;;;;;16.35;3.80;;;6.50;93.50;;;;;;5019157;28;20042;-53
2021/03/21 04:35:14;;;;;;;18.90;4.30;;;6.50;93.60;;;;;;5020355;28;20413;-50
2021/03/21 04:37:45;;;;;;;12.45;3.10;;;6.40;93.50;;;;;;5030426;28;20037;-51
2021/03/21 04:40:15;;;;;;;11.43;3.30;;;6.40;93.70;;;;;;5022938;28;20091;-53
2021/03/21 04:42:59;;;;;;;11.60;2.97;;;6.40;93.70;;;;;;5027654;28;20560;-53
2021/03/21 04:45:28;;;;;;;;;;;6.40;93.70;;;;;;5031507;28;20496;-51
2021/03/21 04:48:04;;;;;;;14.25;3.03;;;6.40;93.70;;;;;;5015661;28;19930;-50
2021/03/21 04:50:31;;;;;;;13.20;3.20;;;6.40;93.70;;;;;;5024664;28;20052;-52
2021/03/21 04:53:22;;;;;;;13.75;3.13;;;6.40;93.60;;;;;;5042847;28;20041;-52
2021/03/21 04:55:58;;;;;;;18.85;3.20;;;6.40;93.60;;;;;;5018773;28;20037;-50
2021/03/21 04:58:32;;;;;;;14.30;2.58;;;6.40;93.60;;;;;;5031330;28;20041;-51
2021/03/21 05:01:11;;;;;;;11.32;2.45;;;6.40;93.70;;;;;;5026245;28;20041;-53
2021/03/21 05:03:45;;;;;;;16.40;3.08;;;6.40;93.70;;;;;;5026436;28;20042;-52
2021/03/21 05:06:21;;;;;;;15.80;2.60;;;6.40;93.80;;;;;;5022330;28;20045;-51
2021/03/21 05:08:57;;;;;;;15.57;2.78;;;6.40;93.70;;;;;;5026434;28;20478;-55
2021/03/21 05:11:38;;;;;;;15.00;2.55;;;6.40;93.70;;;;;;5022465;28;20046;-53
2021/03/21 05:14:11;;;;;;;13.10;2.50;;;6.40;93.50;;;;;;5025534;28;20045;-54
2021/03/21 05:17:02;;;;;;;11.80;2.22;;;6.30;93.50;;;;;;5013449;28;20049;-53
2021/03/21 05:19:41;;;;;;;10.68;2.17;;;6.30;93.50;;;;;;5024111;28;20052;-50
2021/03/21 05:22:13;;;;;;;16.73;2.22;;;6.30;93.50;;;;;;5007192;28;20483;-50
2021/03/21 05:24:55;;;;;;;21.90;2.78;;;6.30;93.50;;;;;;5008421;28;20057;-50
2021/03/21 05:27:31;;;;;;;11.50;2.53;;;6.30;93.40;;;;;;5024988;28;20046;-54
2021/03/21 05:30:25;;;;;;;18.15;2.90;;;6.30;93.40;;;;;;5005228;28;20037;-53
2021/03/21 05:32:51;;;;;;;13.35;2.45;;;6.30;93.40;;;;;;5027741;28;20091;-53
2021/03/21 05:35:24;;;;;;;12.40;2.13;;;6.30;92.50;;;;;;5028566;28;20040;-56
2021/03/21 05:38:14;;;;;;;17.88;2.38;;;6.30;92.60;;;;;;5029098;28;20589;-54
2021/03/21 05:41:13;;;;;;;20.33;2.53;;;6.20;92.10;;;;;;5030564;28;20057;-50
2021/03/21 05:44:14;;;;;;;15.93;2.83;;;6.20;92.30;;;;;;5021125;28;20038;-51
2021/03/21 05:47:22;;;;;;;12.10;1.98;;;6.20;92.30;;;;;;5024342;28;20053;-53
2021/03/21 05:50:07;;;;;;;14.68;2.03;;;6.20;92.40;;;;;;5022378;28;20129;-51
2021/03/21 05:52:48;;;;;;;15.07;2.78;;;6.20;91.70;;;;;;5026919;28;20034;-53
2021/03/21 05:55:29;;;;;;;12.02;1.70;;;6.20;91.70;;;;;;5023579;28;20445;-54
2021/03/21 05:58:04;;;;;;;9.20;2.15;;;6.20;91.50;;;;;;5028124;28;20052;-53
2021/03/21 06:01:01;;;;;;;12.93;1.98;;;6.20;91.70;;;;;;5025420;28;20041;-53
2021/03/21 06:04:00;;;;;;;19.90;2.72;;;6.20;91.60;;;;;;5025386;28;20039;-50
2021/03/21 06:06:59;;;;;;;15.73;2.20;;;6.30;91.50;;;;;;5019007;28;20057;-53
2021/03/21 06:10:02;;;;;;;13.35;1.85;;;6.20;91.00;;;;;;5018525;28;20053;-51
2021/03/21 06:12:28;;;;;;;;;;;6.30;91.30;;;;;;5024484;28;20550;-53
2021/03/21 06:15:05;;;;;;;18.75;2.63;;;6.20;91.00;;;;;;5021033;28;19917;-52
2021/03/21 06:17:56;;;;;;;12.63;2.17;;;6.20;91.20;;;;;;5015343;28;20044;-51
2021/03/21 06:20:33;;;;;;;16.95;2.83;;;6.20;91.00;;;;;;5012612;28;20548;-50
2021/03/21 06:23:07;;;;;;;10.38;2.35;;;6.20;91.10;;;;;;5029193;28;20051;-51
2021/03/21 06:25:58;;;;;;;17.92;2.40;;;6.30;90.60;;;;;;5013233;28;20461;-50
2021/03/21 06:28:45;;;;;;;18.77;2.83;;;6.20;90.30;;;;;;5024174;28;20542;-51
2021/03/21 06:31:22;;;;;;;13.77;2.63;;;6.20;90.60;;;;;;5026885;28;20038;-51
2021/03/21 06:34:25;;;;;;;13.38;2.72;;;6.30;90.50;;;;;;5028065;28;20383;-53
2021/03/21 06:36:52;;;;;;;22.02;2.97;;;6.30;90.10;;;;;;5012108;28;20067;-50
2021/03/21 06:39:46;;;;;;;23.67;3.08;;;6.30;90.40;;;;;;5024447;28;20049;-50
2021/03/21 06:42:51;;;;;;;18.98;3.42;;;6.30;88.90;;;;;;5033290;28;20045;-50
2021/03/21 06:45:58;;;;;;;22.85;3.17;;;6.40;87.20;;;;;;5027603;28;20098;-52
2021/03/21 06:48:26;;;;;;;20.98;3.42;;;6.40;88.00;;;;;;5021616;28;21627;-53
2021/03/21 06:51:11;;;;;;;20.33;3.58;;;6.40;85.90;;;;;;5021564;28;20037;-53
2021/03/21 06:53:49;;;;;;;23.08;3.78;;;6.50;85.20;;;;;;5027236;28;20112;-55
2021/03/21 06:56:44;;;;;;;20.17;2.95;;;6.40;85.70;;;;;;5014900;28;20077;-53
2021/03/21 06:59:32;;;;;;;26.95;3.60;;;6.40;86.00;;;;;;5020611;28;20049;-51
2021/03/21 07:02:10;;;;;;;23.45;4.43;;;6.60;82.20;;;;;;5028283;28;20041;-53
2021/03/21 07:04:54;;;;;;;25.73;3.88;;;6.60;82.80;;;;;;5032181;28;20072;-52
2021/03/21 07:07:46;;;;;;;28.95;4.10;;;6.50;83.30;;;;;;5025655;28;20095;-53
2021/03/21 07:10:12;;;;;;;25.60;4.43;;;6.50;82.30;;;;;;5028094;28;20039;-54
2021/03/21 07:13:08;;;;;;;22.23;3.88;;;6.50;81.50;;;;;;5031103;28;20037;-54
2021/03/21 07:16:11;;;;;;;23.70;4.40;;;6.50;81.50;;;;;;5009933;28;20077;-53
2021/03/21 07:19:04;;;;;;;24.45;4.25;;;6.50;81.90;;;;;;5031716;28;20037;-54
2021/03/21 07:22:02;;;;;;;25.27;3.95;;;6.50;83.30;;;;;;5017214;28;20045;-54
2021/03/21 07:24:58;;;;;;;23.10;4.30;;;6.50;81.90;;;;;;5031860;28;20122;-55
2021/03/21 07:27:51;;;;;;;23.40;4.65;;;6.50;82.60;;;;;;5029731;28;20124;-55
2021/03/21 07:30:35;;;;;;;;;;;6.50;82.50;;;;;;5014374;28;20041;-55
2021/03/21 07:33:40;;;;;;;22.85;4.60;;;6.50;81.30;;;;;;5027209;28;19971;-53
2021/03/21 07:36:28;;;;;;;33.33;4.50;;;6.50;82.10;;;;;;5023822;28;20466;-52
2021/03/21 07:39:25;;;;;;;26.02;4.65;;;6.60;82.50;;;;;;4998753;28;20034;-53
2021/03/21 07:41:53;;;;;;;27.48;4.47;;;6.60;82.20;;;;;;5018584;28;20045;-54
2021/03/21 07:44:38;;;;;;;25.95;4.75;;;6.60;83.30;;;;;;5019504;28;20132;-54
2021/03/21 07:47:42;;;;;;;41.72;5.53;;;6.70;83.00;;;;;;5028823;28;20103;-52
2021/03/21 07:50:23;;;;;;;25.75;5.03;;;6.80;82.70;;;;;;5030941;28;20037;-53
2021/03/21 07:53:27;;;;;;;35.10;4.95;;;6.80;81.60;;;;;;5015690;28;20049;-53
2021/03/21 07:56:08;;;;;;;38.17;5.45;;;6.80;82.00;;;;;;4999414;28;20038;-51
2021/03/21 07:58:43;;;;;;;36.72;4.82;;;6.80;82.90;;;;;;5034865;28;20042;-50
2021/03/21 08:01:08;;;;;;;34.45;5.28;;;6.70;83.20;;;;;;5016102;28;20080;-51
2021/03/21 08:03:57;;;;;;;30.10;4.60;;;6.80;82.90;;;;;;5032595;28;20037;-48
2021/03/21 08:06:30;;;;;;;39.10;4.93;;;6.80;82.00;;;;;;4987096;28;20438;-55
2021/03/21 08:09:20;;;;;;;31.90;5.38;;;6.80;82.20;;;;;;5023021;28;20096;-55
2021/03/21 08:12:04;;;;;;;36.17;5.63;;;6.70;81.60;;;;;;5017319;28;20115;-51
2021/03/21 08:14:32;;;;;;;33.63;4.65;;;6.80;81.90;;;;;;5024832;28;20546;-48
2021/03/21 08:17:07;;;;;;;26.60;4.43;;;6.80;80.10;;;;;;5025481;28;20037;-53
2021/03/21 08:19:35;;;;;;;32.88;5.13;;;6.90;78.00;;;;;;5023987;28;20585;-50
2021/03/21 08:22:03;;;;;;;30.40;5.97;;;6.90;75.90;;;;;;5025897;28;20049;-52
2021/03/21 08:24:35;;;;;;;29.38;5.32;;;6.90;77.90;;;;;;5030187;28;20037;-51
2021/03/21 08:27:07;;;;;;;26.90;4.50;;;7.00;77.10;;;;;;5027352;28;20030;-51
2021/03/21 08:30:04;;;;;;;35.60;4.78;;;7.00;76.60;;;;;;5025630;28;20049;-53
2021/03/21 08:32:34;;;;;;;30.30;4.57;;;7.00;78.20;;;;;;5024856;28;20052;-53
2021/03/21 08:35:17;;;;;;;26.55;4.65;;;7.10;76.90;;;;;;5014389;28;20072;-51
2021/03/21 08:37:46;;;;;;;21.40;4.20;;;7.10;76.70;;;;;;5019346;28;20037;-50
2021/03/21 08:40:14;;;;;;;37.70;5.88;;;7.10;77.60;;;;;;5025014;28;20173;-50
2021/03/21 08:42:42;;;;;;;24.13;4.65;;;7.10;76.80;;;;;;5030170;28;20516;-49
2021/03/21 08:45:30;;;;;;;30.17;4.38;;;7.10;77.70;;;;;;5028439;28;20073;-51
2021/03/21 08:48:17;;;;;;;24.92;5.05;;;7.10;78.10;;;;;;5028224;28;20095;-50
2021/03/21 08:50:46;;;;;;;33.42;5.00;;;7.10;78.20;;;;;;5012497;28;20053;-50
2021/03/21 08:53:42;;;;;;;28.88;4.82;;;7.20;76.30;;;;;;5019332;28;20033;-52
2021/03/21 08:56:28;;;;;;;32.40;5.90;;;7.40;73.90;;;;;;5020483;28;20045;-52
2021/03/21 08:59:23;;;;;;;32.03;5.78;;;7.30;73.90;;;;;;5017824;28;20038;-50
2021/03/21 09:01:57;;;;;;;24.70;5.28;;;7.30;74.00;;;;;;5018986;28;20049;-53
2021/03/21 09:04:25;;;;;;;31.98;4.85;;;7.30;73.60;;;;;;5021760;28;20490;-48
2021/03/21 09:06:52;;;;;;;34.33;4.88;;;7.30;72.90;;;;;;5017736;28;20034;-50
2021/03/21 09:09:22;;;;;;;36.10;5.00;;;7.30;73.30;;;;;;5015839;28;20054;-51
2021/03/21 09:11:58;;;;;;;44.17;6.93;;;7.30;73.60;;;;;;5028530;28;20038;-51
2021/03/21 09:14:31;;;;;;;27.13;6.05;;;7.30;73.80;;;;;;5012139;28;20046;-49
2021/03/21 09:16:58;;;;;;;30.70;4.57;;;7.30;74.10;;;;;;5019839;28;20040;-51
2021/03/21 09:19:30;;;;;;;27.40;4.90;;;7.30;72.40;;;;;;5020092;28;20092;-48
2021/03/21 09:21:57;;;;;;;24.73;4.35;;;7.30;73.10;;;;;;5020476;28;20095;-48
2021/03/21 09:24:27;;;;;;;33.08;5.30;;;7.30;72.20;;;;;;5012191;28;20080;-54
2021/03/21 09:26:52;;;;;;;33.58;4.57;;;7.30;73.50;;;;;;5026981;28;20061;-49
2021/03/21 09:29:28;;;;;;;30.73;5.05;;;7.30;72.70;;;;;;5027471;28;20125;-48
2021/03/21 09:32:05;;;;;;;27.33;4.95;;;7.40;72.70;;;;;;5025781;28;20512;-51
2021/03/21 09:34:52;;;;;;;32.17;5.93;;;7.50;72.30;;;;;;5027414;28;20045;-48
2021/03/21 09:37:23;;;;;;;30.88;4.57;;;7.70;71.10;;;;;;5025541;28;20045;-49
2021/03/21 09:40:00;;;;;;;38.60;6.70;;;7.60;73.20;;;;;;5029477;28;20033;-48
2021/03/21 09:42:26;;;;;;;30.52;5.65;;;7.70;72.10;;;;;;5027495;28;20041;-49
2021/03/21 09:44:52;;;;;;;23.48;5.10;;;7.60;72.70;;;;;;5027635;28;20045;-52
2021/03/21 09:47:28;;;;;;;30.42;4.72;;;7.60;73.40;;;;;;5027609;28;20111;-49
2021/03/21 09:50:09;;;;;;;35.97;5.57;;;7.60;72.20;;;;;;5030285;28;20506;-51
2021/03/21 09:53:15;;;;;;;35.10;6.05;;;7.60;73.00;;;;;;5029689;28;20532;-53
2021/03/21 09:55:47;;;;;;;34.70;5.88;;;7.70;72.80;;;;;;5024908;28;20112;-48
2021/03/21 09:58:24;;;;;;;33.45;5.47;;;7.70;73.20;;;;;;5025494;28;20047;-50
2021/03/21 10:01:19;;;;;;;29.10;5.38;;;7.70;73.20;;;;;;5028969;28;20095;-53
2021/03/21 10:03:52;;;;;;;25.30;4.50;;;7.70;70.90;;;;;;5020501;28;20486;-52
2021/03/21 10:06:22;;;;;;;36.45;5.32;;;7.70;70.50;;;;;;5024382;28;20545;-49
2021/03/21 10:09:03;;;;;;;29.58;5.30;;;7.80;71.70;;;;;;5018776;28;20041;-48
2021/03/21 10:11:42;;;;;;;27.98;5.13;;;7.80;69.80;;;;;;5024797;28;20045;-52
2021/03/21 10:14:23;;;;;;;29.33;5.32;;;7.70;71.00;;;;;;5027165;28;20559;-51
2021/03/21 10:17:18;;;;;;;26.42;4.60;;;7.70;70.30;;;;;;5024670;28;20044;-49
2021/03/21 10:19:47;;;;;;;25.00;4.88;;;7.70;70.00;;;;;;5005070;28;20089;-50
2021/03/21 10:22:25;;;;;;;33.95;5.68;;;7.70;70.10;;;;;;5026566;28;20045;-51
2021/03/21 10:25:17;;;;;;;29.52;5.53;;;7.60;69.90;;;;;;5020010;28;20146;-48
2021/03/21 10:27:49;;;;;;;27.80;5.00;;;7.70;71.10;;;;;;4989983;28;20037;-49
2021/03/21 10:30:19;;;;;;;33.22;4.97;;;7.80;70.40;;;;;;5026150;28;20128;-50
2021/03/21 10:32:59;;;;;;;29.27;4.53;;;7.90;70.00;;;;;;5022346;28;20033;-48
2021/03/21 10:35:24;;;;;;;29.70;5.30;;;7.80;68.50;;;;;;5023638;28;20479;-49
2021/03/21 10:38:09;;;;;;;29.88;5.20;;;7.80;67.40;;;;;;5023896;28;20078;-51
2021/03/21 10:40:35;;;;;;;32.70;6.57;;;7.90;66.00;;;;;;5016773;28;20144;-48
2021/03/21 10:43:16;;;;;;;32.67;8.05;;;8.00;68.10;;;;;;5027522;28;20521;-52
2021/03/21 10:45:42;;;;;;;34.92;6.55;;;8.00;66.10;;;;;;5021383;28;20049;-49
2021/03/21 10:48:31;;;;;;;41.30;8.73;;;8.10;66.00;;;;;;5026998;28;20042;-48
2021/03/21 10:51:12;;;;;;;32.70;5.90;;;8.10;66.30;;;;;;5024059;28;20498;-53
2021/03/21 10:53:47;;;;;;;34.28;5.57;;;8.10;67.70;;;;;;5000895;28;20163;-48
2021/03/21 10:56:21;;;;;;;27.98;4.97;;;8.10;68.40;;;;;;5026343;28;20538;-48
2021/03/21 10:58:46;;;;;;;25.58;5.88;;;8.00;67.80;;;;;;5019398;28;20042;-48
2021/03/21 11:01:18;;;;;;;37.85;5.13;;;8.10;67.40;;;;;;5016238;28;20057;-50
2021/03/21 11:04:01;;;;;;;27.42;5.40;;;8.20;65.90;;;;;;5023178;28;20033;-50
2021/03/21 11:06:31;;;;;;;31.55;5.13;;;8.20;66.80;;;;;;5021109;28;20068;-48
2021/03/21 11:09:09;;;;;;;36.47;6.15;;;8.10;66.50;;;;;;5026230;28;20041;-48
2021/03/21 11:11:48;;;;;;;37.38;5.68;;;8.10;66.20;;;;;;5024239;28;20124;-52
2021/03/21 11:14:30;;;;;;;28.17;4.55;;;8.30;64.40;;;;;;5022233;28;20426;-52
2021/03/21 11:17:00;;;;;;;;;;;8.00;64.60;;;;;;5027164;28;20056;-49
2021/03/21 11:19:30;;;;;;;27.08;5.47;;;8.00;66.50;;;;;;5022057;28;20007;-52
2021/03/21 11:21:57;;;;;;;29.88;4.72;;;8.00;67.00;;;;;;5024998;28;20325;-52
2021/03/21 11:24:34;;;;;;;39.47;6.32;;;8.00;67.80;;;;;;5020240;28;20127;-49
2021/03/21 11:27:03;;;;;;;39.72;6.70;;;8.00;67.00;;;;;;5027707;28;20394;-50
2021/03/21 11:29:30;;;;;;;28.42;4.18;;;8.00;68.40;;;;;;5017741;28;20041;-53
2021/03/21 11:32:03;;;;;;;24.52;4.68;;;8.20;66.40;;;;;;5020101;28;20041;-51
2021/03/21 11:34:33;;;;;;;36.60;5.70;;;8.20;64.90;;;;;;5028144;28;20048;-50
2021/03/21 11:37:05;;;;;;;34.90;6.65;;;8.20;65.80;;;;;;5028354;28;20113;-51
2021/03/21 11:39:39;;;;;;;30.40;6.05;;;8.00;66.10;;;;;;5022164;28;20096;-53
2021/03/21 11:42:21;;;;;;;37.67;5.85;;;8.00;67.10;;;;;;5029658;28;20065;-51
2021/03/21 11:44:50;;;;;;;38.00;5.32;;;8.00;67.30;;;;;;5019336;28;20037;-50
2021/03/21 11:47:31;;;;;;;32.33;5.63;;;8.00;67.10;;;;;;5026523;28;20030;-53
2021/03/21 11:50:00;;;;;;;29.10;4.85;;;8.00;66.60;;;;;;5023393;28;20060;-51
2021/03/21 11:52:27;;;;;;;31.80;5.97;;;7.90;67.00;;;;;;5008266;28;20388;-50
2021/03/21 11:54:54;;;;;;;22.92;4.88;;;8.00;67.40;;;;;;5028827;28;20501;-52
2021/03/21 11:57:28;;;;;;;24.20;4.75;;;8.00;66.30;;;;;;5028221;28;20053;-50
2021/03/21 12:00:17;;;;;;;33.50;6.68;;;8.00;65.80;;;;;;5010706;28;20041;-50
2021/03/21 12:03:01;;;;;;;30.80;6.22;;;8.10;66.50;;;;;;5006221;28;20053;-50
2021/03/21 12:05:34;;;;;;;28.63;5.28;;;8.20;64.30;;;;;;5011114;28;20037;-50
2021/03/21 12:08:22;;;;;;;37.03;5.55;;;8.20;65.00;;;;;;4998136;28;20058;-49
2021/03/21 12:10:49;;;;;;;30.35;5.40;;;8.20;64.50;;;;;;5023607;28;20042;-48
2021/03/21 12:13:23;;;;;;;27.50;4.50;;;8.20;64.20;;;;;;5024923;28;20074;-50
2021/03/21 12:15:51;;;;;;;27.60;5.22;;;8.20;63.40;;;;;;5025864;28;20314;-50
2021/03/21 12:18:24;;;;;;;27.63;5.03;;;8.20;63.80;;;;;;5027207;28;20077;-50
2021/03/21 12:21:08;;;;;;;26.17;5.03;;;8.20;63.80;;;;;;5026337;28;20048;-48
2021/03/21 12:23:42;;;;;;;27.60;4.63;;;8.30;64.70;;;;;;5025228;28;20045;-49
2021/03/21 12:26:10;;;;;;;30.13;5.15;;;8.40;64.10;;;;;;5022981;28;20037;-50
2021/03/21 12:28:38;;;;;;;29.33;4.93;;;8.50;63.20;;;;;;5022693;28;20052;-50
2021/03/21 12:31:14;;;;;;;23.25;4.45;;;8.40;65.10;;;;;;5025636;28;20038;-49
2021/03/21 12:33:40;;;;;;;24.45;5.00;;;8.40;64.70;;;;;;5011099;28;20061;-49
2021/03/21 12:36:05;;;;;;;27.02;4.97;;;8.40;64.20;;;;;;5023365;28;20516;-52
2021/03/21 12:38:40;;;;;;;25.63;4.28;;;8.30;63.90;;;;;;5017494;28;20092;-52
2021/03/21 12:41:39;;;;;;;28.38;5.30;;;8.30;64.60;;;;;;5021526;28;20496;-50
2021/03/21 12:44:09;;;;;;;34.42;5.88;;;8.30;65.20;;;;;;5018899;28;20040;-49
2021/03/21 12:47:14;;;;;;;26.10;5.10;;;8.40;63.70;;;;;;5020383;28;20041;-49
2021/03/21 12:49:42;;;;;;;30.35;5.07;;;8.40;63.30;;;;;;5014148;28;20061;-49
2021/03/21 12:52:30;;;;;;;36.78;4.57;;;8.40;64.10;;;;;;5031233;28;20045;-53
2021/03/21 12:54:56;;;;;;;31.85;4.85;;;8.40;64.50;;;;;;5008462;28;20057;-50
2021/03/21 12:57:22;;;;;;;27.27;5.35;;;8.30;65.50;;;;;;5019752;28;20391;-52
2021/03/21 12:59:50;;;;;;;33.08;5.22;;;8.30;65.40;;;;;;5025056;28;20093;-51
2021/03/21 13:02:20;;;;;;;35.03;5.55;;;8.20;65.70;;;;;;5023482;28;20076;-50
2021/03/21 13:04:46;;;;;;;31.60;4.97;;;8.20;67.00;;;;;;5024371;28;20050;-51
2021/03/21 13:07:12;;;;;;;33.78;5.28;;;8.20;67.10;;;;;;5025534;28;20694;-49
2021/03/21 13:09:39;;;;;;;26.33;4.38;;;8.30;67.30;;;;;;5018490;28;20038;-49
2021/03/21 13:12:05;;;;;;;32.95;5.50;;;8.30;66.30;;;;;;5021989;28;20048;-49
2021/03/21 13:14:31;;;;;;;27.13;5.32;;;8.30;67.20;;;;;;5028190;28;20041;-50
2021/03/21 13:16:56;;;;;;;36.60;5.50;;;8.30;66.80;;;;;;5026752;28;20088;-49
2021/03/21 13:19:22;;;;;;;34.22;6.05;;;8.30;66.90;;;;;;5017675;28;20406;-52
2021/03/21 13:21:48;;;;;;;31.70;5.88;;;8.20;65.70;;;;;;5016183;28;20037;-49
2021/03/21 13:24:14;;;;;;;27.23;4.43;;;8.20;66.40;;;;;;5022210;28;20042;-49
2021/03/21 13:26:40;;;;;;;32.60;5.68;;;8.10;66.40;;;;;;5022399;28;20038;-50
2021/03/21 13:29:05;;;;;;;32.80;7.53;;;8.10;67.10;;;;;;5019195;28;20074;-49
2021/03/21 13:31:31;;;;;;;33.28;5.47;;;8.20;67.00;;;;;;5020366;28;20034;-52
2021/03/21 13:33:57;;;;;;;31.40;5.13;;;8.10;67.40;;;;;;5027153;28;20054;-53
2021/03/21 13:36:23;;;;;;;33.08;6.47;;;8.10;67.30;;;;;;5030333;28;20127;-50
2021/03/21 13:38:49;;;;;;;38.30;5.68;;;8.10;65.90;;;;;;5019598;28;20077;-51